Time;durP1;ratioP1;P1;durP2;ratioP2;P2;SDS_P1;SDS_P2;PMS_P1;PMS_P2;Temp;Humidity;BMP_temperature;BMP_pressure;BME280_temperature;BME280_humidity;BME280_pressure;Samples;Min_cycle;Max_cycle;Signal;HPM_P1;HPM_P2
2022/01/14 00:02:04;;;;;;;69.60;24.40;;;5.90;99.90;;;;;;5066847;28;20045;-66
2022/01/14 00:04:30;;;;;;;71.18;24.85;;;5.90;99.90;;;;;;5060835;28;20508;-66
2022/01/14 00:06:56;;;;;;;69.72;24.48;;;5.90;99.90;;;;;;5062326;28;20116;-66
2022/01/14 00:09:22;;;;;;;66.40;25.38;;;5.90;99.90;;;;;;5066516;28;20044;-66
2022/01/14 00:11:53;;;;;;;69.55;24.48;;;5.90;99.90;;;;;;5066116;28;20048;-66
2022/01/14 00:14:22;;;;;;;62.08;23.73;;;5.90;99.90;;;;;;5067615;28;20051;-66
2022/01/14 00:16:49;;;;;;;69.93;24.42;;;5.90;99.90;;;;;;5065202;28;20043;-66
2022/01/14 00:19:15;;;;;;;68.43;25.63;;;5.90;99.90;;;;;;5066562;28;20115;-66
2022/01/14 00:21:42;;;;;;;64.60;25.08;;;5.90;99.90;;;;;;5063383;28;20032;-66
2022/01/14 00:24:24;;;;;;;73.65;25.60;;;5.90;99.90;;;;;;5062529;28;20046;-66
2022/01/14 00:34:45;;;;;;;85.40;26.90;;;5.90;99.90;;;;;;5065852;28;20649;-66
2022/01/14 00:37:13;;;;;;;71.75;25.48;;;5.90;99.90;;;;;;5065149;28;20037;-66
2022/01/14 00:39:38;;;;;;;82.97;26.98;;;5.90;99.90;;;;;;5065919;28;20044;-66
2022/01/14 00:42:04;;;;;;;76.75;25.67;;;6.00;99.90;;;;;;5061460;28;20451;-66
2022/01/14 00:44:30;;;;;;;74.32;24.92;;;5.90;99.90;;;;;;5066789;28;20120;-66
2022/01/14 00:46:56;;;;;;;79.68;25.40;;;5.90;99.90;;;;;;5063047;28;20165;-66
2022/01/14 00:49:21;;;;;;;80.30;25.52;;;5.90;99.90;;;;;;5062857;28;20460;-66
2022/01/14 00:51:48;;;;;;;76.53;26.20;;;5.90;99.90;;;;;;5065652;28;20032;-66
2022/01/14 00:54:15;;;;;;;80.50;24.95;;;5.90;99.90;;;;;;5063229;28;20399;-66
2022/01/14 00:59:17;;;;;;;72.60;25.98;;;5.90;99.90;;;;;;5068092;28;20047;-66
2022/01/14 01:01:51;;;;;;;72.78;24.90;;;5.90;99.90;;;;;;5064877;28;20039;-65
2022/01/14 01:04:18;;;;;;;61.03;23.15;;;5.90;99.90;;;;;;5064892;28;20047;-65
2022/01/14 01:06:46;;;;;;;69.47;23.92;;;5.90;99.90;;;;;;5065313;28;20059;-65
2022/01/14 01:09:13;;;;;;;64.40;25.40;;;6.00;99.90;;;;;;5063683;28;20048;-65
2022/01/14 01:11:53;;;;;;;74.38;26.15;;;5.90;99.90;;;;;;5064192;28;20059;-65
2022/01/14 01:14:32;;;;;;;77.22;25.73;;;5.90;99.90;;;;;;5061416;28;20248;-65
2022/01/14 01:16:58;;;;;;;71.38;26.08;;;6.00;99.90;;;;;;5062920;28;20493;-66
2022/01/14 01:19:24;;;;;;;65.90;26.10;;;5.90;99.90;;;;;;5059731;28;20028;-66
2022/01/14 01:21:50;;;;;;;72.97;26.10;;;5.90;99.90;;;;;;5064029;28;20036;-66
2022/01/14 01:24:16;;;;;;;68.35;25.88;;;6.00;99.90;;;;;;5066419;28;20424;-66
2022/01/14 01:26:43;;;;;;;71.07;27.60;;;5.90;99.90;;;;;;5063805;28;20040;-66
2022/01/14 01:31:40;;;;;;;69.97;28.13;;;6.00;99.90;;;;;;5064632;28;20142;-66
2022/01/14 01:34:08;;;;;;;68.70;28.70;;;6.00;99.90;;;;;;5063945;28;20409;-66
2022/01/14 01:36:35;;;;;;;74.03;27.95;;;6.00;99.90;;;;;;5062811;28;20073;-66
2022/01/14 01:39:01;;;;;;;68.82;27.65;;;6.00;99.90;;;;;;5061412;28;20044;-66
2022/01/14 01:41:29;;;;;;;74.53;29.30;;;6.00;99.90;;;;;;5063983;28;20051;-66
2022/01/14 01:43:55;;;;;;;69.55;26.70;;;5.90;99.90;;;;;;5063573;28;20028;-66
2022/01/14 01:46:23;;;;;;;67.55;29.48;;;6.00;99.90;;;;;;5062156;28;20547;-66
2022/01/14 01:48:51;;;;;;;63.60;28.25;;;6.00;99.90;;;;;;5065768;28;21088;-66
2022/01/14 01:51:18;;;;;;;64.05;27.77;;;6.00;99.90;;;;;;5064195;28;20067;-66
2022/01/14 01:53:44;;;;;;;65.07;26.70;;;6.00;99.90;;;;;;5059868;28;20049;-66
2022/01/14 01:56:10;;;;;;;58.72;27.08;;;6.00;99.90;;;;;;5061310;28;20036;-66
2022/01/14 01:58:36;;;;;;;62.90;28.80;;;6.00;99.90;;;;;;5058656;28;20515;-66
2022/01/14 02:01:06;;;;;;;59.35;28.33;;;6.00;99.90;;;;;;5058563;28;20102;-66
2022/01/14 02:03:33;;;;;;;59.78;27.35;;;6.00;99.90;;;;;;5061188;28;20043;-66
2022/01/14 02:05:59;;;;;;;55.83;27.65;;;6.00;99.90;;;;;;5057731;28;20115;-66
2022/01/14 02:08:25;;;;;;;61.63;28.27;;;6.00;99.90;;;;;;5061338;28;20059;-66
2022/01/14 02:10:50;;;;;;;56.58;27.63;;;6.00;99.90;;;;;;5064526;28;20409;-66
2022/01/14 02:13:16;;;;;;;59.58;27.98;;;6.00;99.90;;;;;;5062832;28;20074;-66
2022/01/14 02:16:01;;;;;;;59.47;28.80;;;6.00;99.90;;;;;;5064572;28;20044;-66
2022/01/14 02:18:36;;;;;;;57.80;28.65;;;6.00;99.90;;;;;;5063539;28;20496;-66
2022/01/14 02:24:05;;;;;;;52.53;28.40;;;6.10;99.90;;;;;;5062308;28;20051;-66
2022/01/14 02:26:31;;;;;;;62.22;30.15;;;6.10;99.90;;;;;;5061773;28;20036;-66
2022/01/14 02:28:57;;;;;;;55.50;27.27;;;6.00;99.90;;;;;;5064044;28;20025;-66
2022/01/14 02:31:23;;;;;;;66.10;29.88;;;6.10;99.90;;;;;;5068118;28;20036;-66
2022/01/14 02:33:48;;;;;;;57.30;29.75;;;6.10;99.90;;;;;;5063234;28;20147;-66
2022/01/14 02:36:15;;;;;;;52.67;29.00;;;6.10;99.90;;;;;;5063197;28;20028;-66
2022/01/14 02:38:41;;;;;;;55.58;30.05;;;6.10;99.90;;;;;;5061001;28;20185;-66
2022/01/14 02:41:07;;;;;;;62.85;29.48;;;6.00;99.90;;;;;;5059693;28;20139;-66
2022/01/14 02:43:34;;;;;;;53.42;29.85;;;6.10;99.90;;;;;;5061436;28;20036;-66
2022/01/14 02:46:00;;;;;;;58.63;28.88;;;6.10;99.90;;;;;;5063262;28;20161;-66
2022/01/14 02:48:32;;;;;;;54.55;28.02;;;6.10;99.90;;;;;;5058576;28;20146;-66
2022/01/14 02:51:09;;;;;;;48.85;27.95;;;6.10;99.90;;;;;;5062108;28;20060;-66
2022/01/14 02:56:07;;;;;;;61.15;28.58;;;6.00;99.90;;;;;;5063527;28;20040;-66
2022/01/14 02:58:34;;;;;;;55.95;29.55;;;6.00;99.90;;;;;;5059182;28;20040;-66
2022/01/14 03:01:05;;;;;;;52.78;27.67;;;6.00;99.90;;;;;;5065773;28;20039;-66
2022/01/14 03:03:32;;;;;;;48.90;27.67;;;6.10;99.90;;;;;;5062672;28;20048;-66
2022/01/14 03:06:00;;;;;;;54.92;28.90;;;6.00;99.90;;;;;;5061162;28;20394;-66
2022/01/14 03:08:26;;;;;;;49.80;27.33;;;6.00;99.90;;;;;;5062810;28;20147;-66
2022/01/14 03:11:14;;;;;;;50.88;27.15;;;6.00;99.90;;;;;;5060930;28;20120;-66
2022/01/14 03:13:40;;;;;;;51.67;26.13;;;6.00;99.90;;;;;;5058217;28;20059;-66
2022/01/14 03:16:07;;;;;;;49.15;26.05;;;6.00;99.90;;;;;;5064003;28;20036;-66
2022/01/14 03:18:47;;;;;;;55.55;27.55;;;6.00;99.90;;;;;;5062858;28;20076;-66
2022/01/14 03:21:16;;;;;;;52.80;26.90;;;6.00;99.90;;;;;;5059922;28;20037;-66
2022/01/14 03:23:51;;;;;;;52.13;27.27;;;6.00;99.90;;;;;;5060674;28;20098;-66
2022/01/14 03:26:19;;;;;;;51.15;24.90;;;6.00;99.90;;;;;;5062416;28;20041;-66
2022/01/14 03:28:46;;;;;;;61.95;28.20;;;6.00;99.90;;;;;;5064407;28;20663;-66
2022/01/14 03:31:12;;;;;;;53.80;26.52;;;5.90;99.90;;;;;;5061053;28;20136;-66
2022/01/14 03:33:38;;;;;;;55.88;26.92;;;6.00;99.90;;;;;;5062190;28;20533;-66
2022/01/14 03:36:06;;;;;;;55.08;26.75;;;6.00;99.90;;;;;;5064520;28;20350;-66
2022/01/14 03:38:32;;;;;;;55.63;26.98;;;6.00;99.90;;;;;;5057864;28;20054;-66
2022/01/14 03:40:58;;;;;;;54.25;26.23;;;5.90;99.90;;;;;;5047657;28;20052;-66
2022/01/14 03:43:24;;;;;;;54.42;27.67;;;5.90;99.90;;;;;;5064381;28;20036;-66
2022/01/14 03:45:50;;;;;;;58.58;26.92;;;5.90;99.90;;;;;;5061184;28;20295;-66
2022/01/14 03:48:18;;;;;;;51.25;25.48;;;5.90;99.90;;;;;;5060062;28;20072;-66
2022/01/14 03:50:44;;;;;;;53.33;25.35;;;5.90;99.90;;;;;;5065402;28;20384;-66
2022/01/14 03:53:13;;;;;;;50.17;25.98;;;5.90;99.90;;;;;;5056127;28;20049;-66
2022/01/14 03:55:40;;;;;;;51.63;26.92;;;5.90;99.90;;;;;;5062424;28;20033;-66
2022/01/14 03:58:06;;;;;;;50.40;25.00;;;5.90;99.90;;;;;;5064592;28;20524;-66
2022/01/14 04:00:32;;;;;;;52.75;24.95;;;5.90;99.90;;;;;;5061948;28;20040;-66
2022/01/14 04:02:58;;;;;;;47.95;26.00;;;5.90;99.90;;;;;;5061770;28;20029;-66
2022/01/14 04:05:24;;;;;;;52.13;26.65;;;5.90;99.90;;;;;;5064233;28;20032;-66
2022/01/14 04:07:50;;;;;;;52.17;26.00;;;5.90;99.90;;;;;;5061174;28;20470;-66
2022/01/14 04:10:17;;;;;;;47.22;24.92;;;5.90;99.90;;;;;;5061797;28;20098;-66
2022/01/14 04:13:03;;;;;;;48.47;25.25;;;5.90;99.90;;;;;;5060839;28;20449;-66
2022/01/14 04:15:37;;;;;;;51.25;25.83;;;5.90;99.90;;;;;;5053436;28;20037;-66
2022/01/14 04:18:08;;;;;;;52.63;26.90;;;5.90;99.90;;;;;;5059454;28;20036;-66
2022/01/14 04:20:35;;;;;;;52.08;26.02;;;5.90;99.90;;;;;;5058808;28;20047;-66
2022/01/14 04:23:01;;;;;;;53.08;24.70;;;5.90;99.90;;;;;;5065926;28;20522;-66
2022/01/14 04:25:27;;;;;;;47.28;25.13;;;5.90;99.90;;;;;;5064302;28;20056;-66
2022/01/14 04:27:54;;;;;;;48.65;25.92;;;5.90;99.90;;;;;;5069541;28;20586;-66
2022/01/14 04:30:20;;;;;;;51.45;25.48;;;5.90;99.90;;;;;;5067836;28;21108;-66
2022/01/14 04:32:46;;;;;;;51.42;26.38;;;5.90;99.90;;;;;;5064930;28;20037;-66
2022/01/14 04:35:12;;;;;;;48.00;26.08;;;5.80;99.90;;;;;;5059816;28;20072;-66
2022/01/14 04:37:38;;;;;;;48.33;26.52;;;5.80;99.90;;;;;;5061799;28;20554;-66
2022/01/14 04:40:04;;;;;;;50.08;26.40;;;5.80;99.90;;;;;;5065252;28;20044;-66
2022/01/14 04:42:30;;;;;;;53.72;26.83;;;5.80;99.90;;;;;;5065826;28;20154;-66
2022/01/14 04:44:56;;;;;;;52.70;26.13;;;5.80;99.90;;;;;;5068825;28;20032;-66
2022/01/14 04:47:33;;;;;;;45.80;26.17;;;5.90;99.90;;;;;;5059241;28;20037;-66
2022/01/14 04:50:00;;;;;;;47.45;27.10;;;5.80;99.90;;;;;;5064331;28;20044;-66
2022/01/14 04:52:30;;;;;;;48.78;25.27;;;5.80;99.90;;;;;;5059717;28;20067;-66
2022/01/14 04:54:56;;;;;;;47.92;24.20;;;5.90;99.90;;;;;;5061274;28;20120;-66
2022/01/14 04:57:21;;;;;;;52.15;26.70;;;5.90;99.90;;;;;;5059625;28;20067;-66
2022/01/14 04:59:49;;;;;;;49.22;25.85;;;5.90;99.90;;;;;;5066411;28;20040;-66
2022/01/14 05:02:15;;;;;;;48.15;25.23;;;5.80;99.90;;;;;;5069280;28;20040;-66
2022/01/14 05:04:42;;;;;;;41.30;24.25;;;5.80;99.90;;;;;;5063972;28;20097;-66
2022/01/14 05:07:14;;;;;;;45.03;24.48;;;5.80;99.90;;;;;;5057532;28;20127;-66
2022/01/14 05:09:44;;;;;;;46.35;25.17;;;5.80;99.90;;;;;;5060500;28;20052;-66
2022/01/14 05:12:11;;;;;;;40.20;23.50;;;5.80;99.90;;;;;;5061506;28;20511;-66
2022/01/14 05:14:37;;;;;;;47.63;24.42;;;5.80;99.90;;;;;;5057814;28;20485;-66
2022/01/14 05:17:03;;;;;;;39.78;24.33;;;5.80;99.90;;;;;;5059216;28;20037;-66
2022/01/14 05:19:29;;;;;;;47.38;23.60;;;5.80;99.90;;;;;;5058532;28;20374;-66
2022/01/14 05:21:55;;;;;;;42.63;24.20;;;5.80;99.90;;;;;;5064236;28;20500;-65
2022/01/14 05:24:22;;;;;;;43.20;24.17;;;5.80;99.90;;;;;;5055777;28;20044;-65
2022/01/14 05:26:48;;;;;;;43.35;24.55;;;5.70;99.90;;;;;;5060066;28;20142;-65
2022/01/14 05:29:14;;;;;;;47.90;24.77;;;5.80;99.90;;;;;;5060295;28;21280;-65
2022/01/14 05:31:51;;;;;;;49.78;24.60;;;5.80;99.90;;;;;;5060050;28;20048;-65
2022/01/14 05:34:18;;;;;;;41.08;23.58;;;5.70;99.90;;;;;;5053162;28;20056;-65
2022/01/14 05:36:44;;;;;;;41.00;23.35;;;5.70;99.90;;;;;;5063240;28;20040;-65
2022/01/14 05:39:11;;;;;;;42.80;23.80;;;5.70;99.90;;;;;;5062466;28;20036;-65
2022/01/14 05:41:37;;;;;;;45.50;24.67;;;5.70;99.90;;;;;;5055094;28;20492;-65
2022/01/14 05:44:05;;;;;;;34.95;23.25;;;5.70;99.90;;;;;;5061106;28;20044;-65
2022/01/14 05:46:31;;;;;;;38.75;23.38;;;5.70;99.90;;;;;;5060734;28;20059;-66
2022/01/14 05:48:56;;;;;;;44.40;25.05;;;5.70;99.90;;;;;;5059097;28;20113;-66
2022/01/14 05:51:22;;;;;;;41.22;23.27;;;5.70;99.90;;;;;;5057624;28;20041;-66
2022/01/14 05:53:48;;;;;;;42.50;23.48;;;5.70;99.90;;;;;;5055405;28;20044;-66
2022/01/14 05:56:14;;;;;;;42.58;25.10;;;5.70;99.90;;;;;;5059063;28;20032;-66
2022/01/14 05:58:39;;;;;;;39.35;24.65;;;5.70;99.90;;;;;;5053962;28;20124;-66
2022/01/14 06:01:05;;;;;;;37.97;23.05;;;5.70;99.90;;;;;;5061239;28;20481;-66
2022/01/14 06:03:31;;;;;;;38.95;23.70;;;5.60;99.90;;;;;;5058773;28;20047;-66
2022/01/14 06:05:56;;;;;;;37.47;24.20;;;5.60;99.90;;;;;;5058287;28;20040;-66
2022/01/14 06:08:23;;;;;;;40.35;23.88;;;5.60;99.90;;;;;;5062474;28;20543;-66
2022/01/14 06:10:48;;;;;;;36.42;22.90;;;5.60;99.90;;;;;;5058835;28;20087;-66
2022/01/14 06:13:14;;;;;;;37.83;23.55;;;5.50;99.90;;;;;;5056829;28;20372;-65
2022/01/14 06:15:40;;;;;;;44.97;23.83;;;5.60;99.90;;;;;;5055066;28;20569;-65
2022/01/14 06:18:05;;;;;;;38.33;23.40;;;5.60;99.90;;;;;;5061107;28;20376;-65
2022/01/14 06:20:31;;;;;;;43.92;24.10;;;5.60;99.90;;;;;;5052951;28;20033;-65
2022/01/14 06:22:57;;;;;;;36.60;23.23;;;5.50;99.90;;;;;;5061257;28;20045;-66
2022/01/14 06:25:22;;;;;;;40.85;24.02;;;5.50;99.90;;;;;;5059738;28;20048;-66
2022/01/14 06:27:49;;;;;;;53.50;33.45;;;5.50;99.90;;;;;;5058983;28;20036;-66
2022/01/14 06:30:14;;;;;;;42.90;24.42;;;5.60;99.90;;;;;;5066804;28;20107;-66
2022/01/14 06:32:43;;;;;;;43.88;23.60;;;5.60;99.90;;;;;;5056519;28;20090;-66
2022/01/14 06:35:14;;;;;;;41.17;23.70;;;5.50;99.90;;;;;;5056185;28;20540;-66
2022/01/14 06:37:40;;;;;;;41.38;24.38;;;5.50;99.90;;;;;;5055374;28;20070;-66
2022/01/14 06:40:08;;;;;;;47.08;24.83;;;5.60;99.90;;;;;;5059679;28;20507;-66
2022/01/14 06:42:34;;;;;;;37.92;24.60;;;5.50;99.90;;;;;;5053266;28;20051;-66
2022/01/14 06:45:00;;;;;;;42.50;24.90;;;5.60;99.90;;;;;;5060441;28;20381;-66
2022/01/14 06:47:25;;;;;;;39.05;23.65;;;5.60;99.90;;;;;;5056121;28;20037;-66
2022/01/14 06:49:52;;;;;;;42.40;24.85;;;5.60;99.90;;;;;;5059427;28;20142;-66
2022/01/14 06:52:18;;;;;;;41.22;23.83;;;5.60;99.90;;;;;;5062759;28;20085;-66
2022/01/14 06:54:44;;;;;;;44.60;23.40;;;5.60;99.90;;;;;;5061249;28;20068;-66
2022/01/14 06:57:10;;;;;;;42.58;24.30;;;5.60;99.90;;;;;;5058685;28;20040;-66
2022/01/14 06:59:35;;;;;;;45.25;24.17;;;5.60;99.90;;;;;;5063987;28;20048;-66
2022/01/14 07:02:02;;;;;;;40.22;23.42;;;5.60;99.90;;;;;;5063184;28;21308;-66
2022/01/14 07:04:28;;;;;;;44.10;24.42;;;5.60;99.90;;;;;;5057244;28;20029;-66
2022/01/14 07:06:53;;;;;;;44.00;23.73;;;5.60;99.90;;;;;;5060892;28;20491;-66
2022/01/14 07:09:19;;;;;;;43.05;24.63;;;5.60;99.90;;;;;;5060625;28;20048;-66
2022/01/14 07:11:52;;;;;;;40.72;24.15;;;5.60;99.90;;;;;;5055300;28;20052;-66
2022/01/14 07:14:18;;;;;;;40.42;23.45;;;5.60;99.90;;;;;;5061258;28;20059;-66
2022/01/14 07:16:44;;;;;;;40.60;22.83;;;5.60;99.90;;;;;;5062887;28;20111;-66
2022/01/14 07:19:10;;;;;;;41.00;23.40;;;5.60;99.90;;;;;;5059774;28;20127;-66
2022/01/14 07:21:35;;;;;;;43.67;24.15;;;5.60;99.90;;;;;;5059420;28;20033;-67
2022/01/14 07:24:03;;;;;;;42.30;24.13;;;5.60;99.90;;;;;;5059473;28;20045;-66
2022/01/14 07:26:29;;;;;;;36.35;22.50;;;5.60;99.90;;;;;;5063549;28;20041;-66
2022/01/14 07:28:54;;;;;;;43.65;24.42;;;5.60;99.90;;;;;;5057824;28;20047;-66
2022/01/14 07:31:20;;;;;;;38.90;22.58;;;5.60;99.90;;;;;;5061319;28;20480;-66
2022/01/14 07:33:46;;;;;;;40.17;23.40;;;5.60;99.90;;;;;;5061413;28;20040;-66
2022/01/14 07:36:11;;;;;;;41.08;23.55;;;5.60;99.90;;;;;;5056672;28;20029;-66
2022/01/14 07:38:37;;;;;;;43.35;23.40;;;5.60;99.90;;;;;;5057503;28;20078;-66
2022/01/14 07:41:03;;;;;;;36.00;22.48;;;5.60;99.90;;;;;;5059054;28;20060;-66
2022/01/14 07:43:29;;;;;;;34.33;22.98;;;5.60;99.90;;;;;;5056745;28;20147;-66
2022/01/14 07:45:55;;;;;;;39.00;23.55;;;5.60;99.90;;;;;;5054881;28;20037;-66
2022/01/14 07:48:21;;;;;;;41.38;24.08;;;5.70;99.90;;;;;;5060684;28;20093;-66
2022/01/14 07:50:47;;;;;;;39.15;21.98;;;5.70;99.90;;;;;;5058055;28;20040;-66
2022/01/14 07:53:13;;;;;;;38.05;22.67;;;5.70;99.90;;;;;;5053809;28;20094;-66
2022/01/14 07:55:39;;;;;;;40.47;22.88;;;5.60;99.90;;;;;;5063384;28;20053;-66
2022/01/14 07:58:05;;;;;;;36.25;21.65;;;5.70;99.90;;;;;;5064546;28;20047;-66
2022/01/14 08:00:32;;;;;;;37.60;21.55;;;5.70;99.90;;;;;;5065147;28;20032;-66
2022/01/14 08:02:58;;;;;;;42.22;23.00;;;5.70;99.90;;;;;;5063578;28;20043;-66
2022/01/14 08:05:26;;;;;;;38.35;22.10;;;5.70;99.90;;;;;;5063150;28;20563;-66
2022/01/14 08:07:53;;;;;;;34.28;21.92;;;5.70;99.90;;;;;;5058143;28;20056;-66
2022/01/14 08:10:19;;;;;;;38.22;22.55;;;5.70;99.90;;;;;;5063719;28;20071;-66
2022/01/14 08:12:46;;;;;;;32.67;21.85;;;5.80;99.90;;;;;;5063409;28;20036;-66
2022/01/14 08:15:12;;;;;;;35.63;21.10;;;5.80;99.90;;;;;;5063035;28;20524;-66
2022/01/14 08:17:38;;;;;;;36.85;21.25;;;5.80;99.90;;;;;;5065563;28;20604;-66
2022/01/14 08:20:06;;;;;;;34.22;21.17;;;5.80;99.90;;;;;;5059404;28;20091;-66
2022/01/14 08:22:32;;;;;;;39.53;21.70;;;5.80;99.90;;;;;;5062111;28;20041;-66
2022/01/14 08:24:59;;;;;;;34.08;19.92;;;5.80;99.90;;;;;;5067825;28;20476;-66
2022/01/14 08:27:26;;;;;;;28.88;20.45;;;5.90;99.90;;;;;;5057627;28;20041;-66
2022/01/14 08:29:53;;;;;;;38.70;20.80;;;5.90;99.90;;;;;;5062843;28;20040;-66
2022/01/14 08:32:19;;;;;;;39.72;19.90;;;5.90;99.90;;;;;;5057190;28;20076;-66
2022/01/14 08:34:45;;;;;;;37.38;20.25;;;5.90;99.90;;;;;;5062030;28;20048;-66
2022/01/14 08:37:10;;;;;;;30.70;20.27;;;5.90;99.90;;;;;;5062147;28;20404;-66
2022/01/14 08:39:36;;;;;;;35.92;19.48;;;6.00;99.90;;;;;;5061913;28;20095;-66
2022/01/14 08:42:04;;;;;;;36.80;20.10;;;6.00;99.90;;;;;;5058502;28;20068;-66
2022/01/14 08:44:31;;;;;;;38.00;19.52;;;6.00;99.90;;;;;;5060554;28;20056;-66
2022/01/14 08:46:56;;;;;;;31.88;19.02;;;6.00;99.90;;;;;;5065525;28;20056;-66
2022/01/14 08:49:22;;;;;;;39.92;18.83;;;6.00;99.90;;;;;;5056312;28;20094;-66
2022/01/14 08:51:49;;;;;;;34.28;19.40;;;6.10;99.90;;;;;;5057005;28;20445;-66
2022/01/14 08:54:16;;;;;;;32.25;18.95;;;6.10;99.90;;;;;;5059081;28;20040;-66
2022/01/14 08:56:42;;;;;;;34.22;18.25;;;6.10;99.90;;;;;;5058223;28;20041;-66
2022/01/14 08:59:07;;;;;;;34.88;18.48;;;6.10;99.90;;;;;;5057258;28;20105;-66
2022/01/14 09:01:34;;;;;;;30.52;18.55;;;6.20;99.90;;;;;;5061443;28;20492;-66
2022/01/14 09:04:01;;;;;;;33.10;19.50;;;6.20;99.90;;;;;;5057353;28;20138;-66
2022/01/14 09:06:28;;;;;;;31.27;17.52;;;6.20;99.90;;;;;;5062030;28;20071;-66
2022/01/14 09:08:54;;;;;;;30.35;17.50;;;6.30;99.90;;;;;;5053162;28;20493;-66
2022/01/14 09:11:19;;;;;;;34.53;17.42;;;6.20;99.90;;;;;;5063310;28;20043;-66
2022/01/14 09:13:45;;;;;;;31.23;17.42;;;6.30;99.90;;;;;;5056066;28;20035;-66
2022/01/14 09:16:11;;;;;;;30.75;17.33;;;6.30;99.90;;;;;;5056731;28;20566;-66
2022/01/14 09:18:37;;;;;;;25.27;16.17;;;6.30;99.90;;;;;;5055988;28;20056;-66
2022/01/14 09:21:03;;;;;;;31.42;17.27;;;6.40;99.90;;;;;;5057993;28;20190;-66
2022/01/14 09:23:29;;;;;;;31.77;16.10;;;6.40;99.90;;;;;;5060417;28;20037;-66
2022/01/14 09:25:56;;;;;;;30.17;16.20;;;6.40;99.90;;;;;;5062759;28;20055;-66
2022/01/14 09:28:22;;;;;;;26.35;15.20;;;6.50;99.90;;;;;;5057470;28;20091;-66
2022/01/14 09:30:48;;;;;;;28.10;16.40;;;6.50;99.90;;;;;;5065305;28;20111;-66
2022/01/14 09:33:17;;;;;;;29.65;15.80;;;6.50;99.90;;;;;;5060559;28;20167;-66
2022/01/14 09:35:46;;;;;;;27.08;15.30;;;6.50;99.90;;;;;;5058574;28;20405;-66
2022/01/14 09:38:12;;;;;;;26.45;15.00;;;6.50;99.90;;;;;;5058650;28;20468;-66
2022/01/14 09:40:43;;;;;;;25.88;14.35;;;6.60;99.90;;;;;;5056119;28;20052;-66
2022/01/14 09:43:12;;;;;;;28.52;13.77;;;6.70;99.90;;;;;;5065320;28;20439;-66
2022/01/14 09:45:38;;;;;;;29.50;14.10;;;6.70;99.90;;;;;;5062643;28;20044;-66
2022/01/14 09:48:04;;;;;;;25.33;14.10;;;6.70;99.90;;;;;;5061631;28;20044;-66
2022/01/14 09:50:30;;;;;;;29.40;13.70;;;6.70;99.90;;;;;;5066049;28;20047;-66
2022/01/14 09:52:55;;;;;;;27.58;12.52;;;6.80;99.90;;;;;;5063469;28;20040;-66
2022/01/14 09:55:24;;;;;;;23.20;11.90;;;6.80;99.90;;;;;;5061631;28;20036;-66
2022/01/14 09:57:52;;;;;;;24.35;12.38;;;6.90;99.90;;;;;;5062493;28;20508;-66
2022/01/14 10:00:18;;;;;;;21.15;12.32;;;6.90;99.90;;;;;;5059716;28;20472;-66
2022/01/14 10:02:44;;;;;;;23.88;12.50;;;6.90;99.90;;;;;;5064378;28;20088;-66
2022/01/14 10:05:31;;;;;;;21.88;11.30;;;7.00;99.90;;;;;;5059438;28;20388;-66
2022/01/14 10:08:16;;;;;;;23.02;11.10;;;7.10;99.90;;;;;;5060787;28;20642;-66
2022/01/14 10:10:49;;;;;;;19.38;9.77;;;7.10;99.90;;;;;;5063975;28;20420;-66
2022/01/14 10:13:20;;;;;;;21.95;10.45;;;7.10;99.90;;;;;;5058503;28;20036;-66
2022/01/14 10:15:52;;;;;;;21.30;9.82;;;7.20;99.90;;;;;;5056629;28;20093;-66
2022/01/14 10:18:21;;;;;;;18.73;9.40;;;7.20;99.90;;;;;;5059307;28;20124;-66
2022/01/14 10:20:47;;;;;;;22.05;9.50;;;7.20;99.90;;;;;;5053867;28;20098;-66
2022/01/14 10:23:15;;;;;;;21.27;8.77;;;7.30;99.90;;;;;;5054749;28;20129;-66
2022/01/14 10:25:41;;;;;;;17.48;8.32;;;7.30;99.90;;;;;;5059775;28;20060;-66
2022/01/14 10:28:19;;;;;;;14.65;8.18;;;7.30;99.90;;;;;;5058355;28;20040;-66
2022/01/14 10:30:46;;;;;;;14.43;7.72;;;7.40;99.90;;;;;;5057990;28;20040;-66
2022/01/14 10:33:13;;;;;;;18.73;7.72;;;7.30;99.90;;;;;;5061088;28;20586;-66
2022/01/14 10:35:42;;;;;;;15.85;7.70;;;7.40;99.90;;;;;;5055389;28;20057;-66
2022/01/14 10:38:10;;;;;;;13.90;6.63;;;7.30;99.90;;;;;;5052903;28;20049;-66
2022/01/14 10:40:41;;;;;;;14.20;7.50;;;7.40;99.90;;;;;;5057174;28;20051;-66
2022/01/14 10:43:10;;;;;;;17.90;7.00;;;7.40;99.90;;;;;;5058060;28;20052;-66
2022/01/14 10:45:37;;;;;;;12.95;5.55;;;7.40;99.90;;;;;;5059758;28;20036;-66
2022/01/14 10:48:05;;;;;;;14.40;5.25;;;7.40;99.90;;;;;;5057919;28;20450;-66
2022/01/14 10:50:36;;;;;;;11.63;4.45;;;7.40;99.90;;;;;;5059487;28;20311;-66
2022/01/14 10:53:11;;;;;;;15.02;5.82;;;7.50;99.90;;;;;;5060743;28;20036;-66
2022/01/14 10:55:43;;;;;;;15.93;5.03;;;7.50;99.90;;;;;;5062177;28;20043;-66
2022/01/14 10:58:17;;;;;;;13.98;5.18;;;7.50;99.90;;;;;;5053830;28;20029;-66
2022/01/14 11:01:05;;;;;;;12.17;4.57;;;7.50;99.90;;;;;;5063484;28;20072;-66
2022/01/14 11:04:00;;;;;;;14.43;5.63;;;7.50;99.90;;;;;;5057443;28;20045;-66
2022/01/14 11:06:30;;;;;;;16.27;5.28;;;7.50;99.90;;;;;;5057306;28;20169;-66
2022/01/14 11:09:03;;;;;;;11.55;5.97;;;7.50;99.90;;;;;;5056955;28;20064;-66
2022/01/14 11:11:32;;;;;;;12.82;4.47;;;7.50;99.90;;;;;;5054306;28;20041;-66
2022/01/14 11:13:58;;;;;;;14.55;5.15;;;7.60;99.90;;;;;;5053772;28;20179;-66
2022/01/14 11:16:24;;;;;;;16.10;5.20;;;7.60;99.90;;;;;;5060114;28;20041;-66
2022/01/14 11:18:50;;;;;;;16.48;4.95;;;7.70;99.90;;;;;;5054827;28;20492;-66
2022/01/14 11:24:04;;;;;;;;;;;7.50;99.90;;;;;;5058088;28;20040;-66
2022/01/14 11:26:34;;;;;;;12.70;4.45;;;7.50;99.90;;;;;;5058015;28;19916;-66
2022/01/14 11:29:21;;;;;;;16.13;5.18;;;7.40;99.90;;;;;;5063563;28;20115;-66
2022/01/14 11:31:57;;;;;;;11.80;5.07;;;7.40;99.90;;;;;;5059466;28;20404;-66
2022/01/14 11:34:46;;;;;;;13.45;4.13;;;7.40;99.90;;;;;;5058361;28;20048;-66
2022/01/14 11:37:16;;;;;;;13.82;4.95;;;7.40;99.90;;;;;;5060121;28;20384;-66
2022/01/14 11:40:08;;;;;;;15.60;4.85;;;7.40;99.90;;;;;;5061358;28;20106;-66
2022/01/14 11:42:48;;;;;;;11.70;4.25;;;7.40;99.90;;;;;;5061057;28;20119;-66
2022/01/14 11:45:19;;;;;;;15.90;4.35;;;7.40;99.90;;;;;;5060233;28;20037;-66
2022/01/14 11:47:46;;;;;;;15.10;4.65;;;7.40;99.90;;;;;;5056355;28;20117;-66
2022/01/14 11:50:24;;;;;;;12.88;4.55;;;7.40;99.90;;;;;;5062063;28;20404;-66
2022/01/14 11:52:51;;;;;;;11.27;4.45;;;7.40;99.90;;;;;;5062066;28;20047;-66
2022/01/14 11:55:22;;;;;;;14.40;5.05;;;7.40;99.90;;;;;;5059679;28;20048;-66
2022/01/14 11:57:53;;;;;;;13.10;4.65;;;7.40;99.90;;;;;;5061912;28;20565;-66
2022/01/14 12:00:29;;;;;;;13.82;4.20;;;7.40;99.90;;;;;;5063503;28;20032;-66
2022/01/14 12:03:07;;;;;;;11.52;4.13;;;7.40;99.90;;;;;;5063296;28;20337;-66
2022/01/14 12:05:36;;;;;;;17.10;4.18;;;7.40;99.90;;;;;;5061519;28;20048;-66
2022/01/14 12:08:04;;;;;;;16.77;4.55;;;7.40;99.90;;;;;;5059925;28;20067;-66
2022/01/14 12:10:33;;;;;;;13.90;3.80;;;7.50;99.90;;;;;;5059058;28;20045;-66
2022/01/14 12:13:25;;;;;;;13.95;3.85;;;7.50;99.90;;;;;;5057292;28;20036;-66
2022/01/14 12:16:03;;;;;;;18.98;5.28;;;7.50;99.90;;;;;;5066494;28;20052;-66
2022/01/14 12:19:02;;;;;;;12.07;4.13;;;7.60;99.90;;;;;;5065557;28;20029;-66
2022/01/14 12:21:50;;;;;;;11.07;3.75;;;7.60;99.90;;;;;;5063057;28;20033;-66
2022/01/14 12:24:16;;;;;;;13.50;4.07;;;7.60;99.90;;;;;;5066759;28;20037;-66
2022/01/14 12:27:12;;;;;;;12.95;4.15;;;7.60;99.90;;;;;;5056164;28;20368;-66
2022/01/14 12:29:50;;;;;;;12.70;3.60;;;7.60;99.90;;;;;;5059403;28;20036;-66
2022/01/14 12:32:29;;;;;;;7.78;3.15;;;7.60;99.90;;;;;;5059333;28;20048;-66
2022/01/14 12:34:54;;;;;;;13.25;3.53;;;7.60;99.90;;;;;;5063764;28;20449;-66
2022/01/14 12:37:30;;;;;;;13.93;4.00;;;7.60;99.90;;;;;;5059242;28;20040;-66
2022/01/14 12:39:57;;;;;;;16.45;3.90;;;7.60;99.90;;;;;;5069602;28;20397;-66
2022/01/14 12:42:24;;;;;;;12.65;3.60;;;7.60;99.90;;;;;;5060224;28;20028;-66
2022/01/14 12:44:52;;;;;;;11.15;3.55;;;7.60;99.90;;;;;;5056066;28;20467;-66
2022/01/14 12:47:26;;;;;;;16.83;3.72;;;7.60;99.90;;;;;;5062619;28;20049;-66
2022/01/14 12:49:52;;;;;;;11.75;3.25;;;7.50;99.90;;;;;;5061848;28;20385;-66
2022/01/14 12:52:37;;;;;;;15.43;3.97;;;7.50;99.90;;;;;;5063890;28;20033;-66
2022/01/14 12:55:07;;;;;;;13.90;3.78;;;7.50;99.90;;;;;;5064043;28;20067;-66
2022/01/14 12:57:33;;;;;;;14.82;4.22;;;7.60;99.90;;;;;;5057789;28;20084;-66
2022/01/14 12:59:59;;;;;;;14.60;3.67;;;7.60;99.90;;;;;;5059639;28;20064;-66
2022/01/14 13:02:31;;;;;;;12.25;3.33;;;7.60;99.90;;;;;;5062569;28;20040;-67
2022/01/14 13:05:05;;;;;;;13.73;3.70;;;7.60;99.90;;;;;;5062905;28;20053;-66
2022/01/14 13:07:31;;;;;;;8.67;3.47;;;7.60;99.90;;;;;;5061053;28;20056;-66
2022/01/14 13:09:57;;;;;;;10.90;3.35;;;7.60;99.90;;;;;;5062394;28;20040;-66